Latest Weather Observations for Normanton

IDQ60801

Issued at 9:32 am EST Sunday 4 December 2016 (issued every 30 minutes, with the page automatically refreshed every 10 minutes)

About weather observations | Map of weather stations | Latest weather observations for QLD | Other Formats
Station Details ID: 029063 Name: NORMANTON AIRPORT Lat: -17.69 Lon: 141.07 Height: 18.42 m
Data from the previous 72 hours. | See also: Recent months at Normanton
Date/Time
EST
Temp
°C
App
Temp
°C
Dew
Point
°C
Rel
Hum
%
Delta-T
°C
Wind Press
QNH
hPa
Press
MSL
hPa
Rain since
9am
mm
Dir  Spd
km/h
Gust
km/h
Spd
kts
Gust
kts
04/09:30am 32.9 31.5 13.5 30 11.7 NE 13 19 7 10 1013.0 - 0.0
04/09:00am 32.3 31.0 14.9 35 10.7 NNE 15 24 8 13 1013.1 1012.9 0.0
04/08:30am 31.4 29.8 15.0 37 10.1 NNE 17 26 9 14 1013.2 - 0.0
04/08:00am 30.3 28.5 16.0 42 8.9 NNE 20 32 11 17 1013.0 - 0.0
04/07:30am 29.2 29.3 18.3 51 7.0 NNE 15 22 8 12 1012.8 - 0.0
04/07:00am 27.7 29.3 21.5 69 4.1 NNE 15 20 8 11 1012.5 - 0.0
04/06:30am 26.8 30.0 23.7 83 2.1 NE 13 20 7 11 1012.1 - 0.0
04/06:00am 26.1 30.7 24.7 92 1.0 NE 9 13 5 7 1011.6 1011.4 0.0
04/05:30am 26.2 30.7 24.6 91 1.1 NE 9 13 5 7 1011.0 - 0.0
04/05:00am 26.4 31.4 24.8 91 1.1 NE 7 13 4 7 1010.6 - 0.0
04/04:30am 26.5 31.3 25.1 92 1.0 NE 9 13 5 7 1010.2 - 0.0
04/04:00am 26.6 31.5 25.2 92 1.0 NE 9 13 5 7 1009.7 - 0.0
04/03:30am 26.8 32.2 25.4 92 1.0 NE 7 11 4 6 1009.5 - 0.0
04/03:00am 26.7 31.5 25.1 91 1.1 E 9 11 5 6 1009.3 1009.1 0.0
04/02:30am 27.2 32.5 25.2 89 1.4 E 7 11 4 6 1009.2 - 0.0
04/02:00am 27.4 32.5 25.0 87 1.7 ENE 7 9 4 5 1009.3 - 0.0
04/01:30am 27.8 32.5 25.0 85 2.0 ENE 9 11 5 6 1009.6 - 0.0
04/01:00am 28.0 32.2 24.8 83 2.2 ENE 11 13 6 7 1009.7 - 0.0
04/12:30am 28.5 34.6 24.5 79 2.8 CALM 0 6 0 3 1009.4 - 0.0
04/12:00am 29.2 34.3 25.0 78 3.0 W 7 9 4 5 1009.4 1009.2 0.0
 
Date/Time
EST
Temp
°C
App
Temp
°C
Dew
Point
°C
Rel
Hum
%
Delta-T
°C
Wind Press
QNH
hPa
Press
MSL
hPa
Rain since
9am
mm
Dir  Spd
km/h
Gust
km/h
Spd
kts
Gust
kts
03/11:30pm 29.8 34.9 24.9 75 3.4 WNW 7 9 4 5 1009.7 - 0.0
03/11:00pm 30.0 34.8 25.1 75 3.4 WNW 9 11 5 6 1009.6 - 0.0
03/10:30pm 30.3 34.6 24.9 73 3.8 WNW 11 13 6 7 1009.4 - 0.0
03/10:00pm 30.6 34.2 25.0 72 3.9 NW 15 17 8 9 1009.2 - 0.0
03/09:30pm 30.9 34.4 24.8 70 4.3 NW 15 17 8 9 1009.0 - 0.0
03/09:00pm 31.3 34.9 24.4 66 4.8 NW 13 19 7 10 1008.8 1008.6 0.0
03/08:30pm 31.7 34.6 23.8 63 5.5 NW 15 17 8 9 1008.7 - 0.0
03/08:00pm 32.4 34.2 23.3 58 6.3 NW 19 22 10 12 1008.5 - 0.0
03/07:30pm 33.0 34.0 22.1 52 7.4 NW 20 24 11 13 1008.2 - 0.0
03/07:00pm 34.2 34.9 21.6 47 8.6 NW 20 28 11 15 1007.8 - 0.0
03/06:30pm 35.1 34.4 20.2 41 10.0 NNW 24 33 13 18 1007.5 - 0.0
03/06:00pm 36.9 35.6 19.8 36 11.5 NW 26 32 14 17 1007.2 1006.9 0.0
03/05:30pm 37.8 36.6 19.2 33 12.4 NW 24 30 13 16 1006.8 - 0.0
03/05:00pm 40.5 38.4 9.8 16 18.1 E 11 22 6 12 1006.6 - 0.0
03/04:30pm 39.7 37.9 10.9 18 17.2 ENE 11 19 6 10 1006.8 - 0.0
03/04:00pm 40.3 37.6 10.5 17 17.8 ESE 15 32 8 17 1006.9 - 0.0
03/03:30pm 40.5 36.6 10.7 17 17.8 SSE 22 37 12 20 1007.0 - 0.0
03/03:00pm 39.7 39.0 13.3 21 16.3 SE 9 19 5 10 1007.5 1007.4 0.0
03/02:30pm 39.7 38.0 12.5 20 16.6 SSE 13 20 7 11 1008.1 - 0.0
03/02:00pm 39.6 38.3 12.4 20 16.6 ESE 11 28 6 15 1008.7 - 0.0
03/01:30pm 39.8 38.7 11.8 19 17.0 ESE 9 19 5 10 1009.2 - 0.0
03/01:00pm 38.7 37.7 14.5 24 15.2 N 13 20 7 11 1009.6 - 0.0
03/12:30pm 37.6 38.5 16.0 28 13.8 SE 6 13 3 7 1010.0 - 0.0
03/12:00pm 36.9 37.6 17.0 31 12.8 N 9 13 5 7 1010.6 1010.4 0.0
03/11:30am 36.2 36.5 16.9 32 12.4 NNE 11 17 6 9 1011.0 - 0.0
03/11:00am 35.5 36.1 16.8 33 12.0 NE 9 15 5 8 1011.4 - 0.0
03/10:30am 35.3 35.2 17.0 33 11.7 ENE 13 17 7 9 1011.9 - 0.0
03/10:00am 33.7 34.0 17.0 37 10.7 ENE 11 17 6 9 1012.2 - 0.0
03/09:30am 33.1 33.0 16.9 38 10.3 ESE 13 20 7 11 1012.3 - 0.0
03/09:00am 32.5 33.2 17.9 41 9.4 E 11 20 6 11 1012.3 1012.1 1.4
03/08:30am 31.7 33.0 19.3 47 8.1 E 11 17 6 9 1012.3 - 1.4
03/08:00am 30.0 31.9 19.7 54 6.7 ESE 9 15 5 8 1012.2 - 1.4
03/07:30am 28.7 30.5 19.6 58 5.9 SE 9 13 5 7 1012.2 - 1.4
03/07:00am 27.1 29.2 19.4 62 5.0 SSE 7 9 4 5 1011.9 - 1.4
03/06:30am 25.9 29.0 19.5 68 4.1 SSW 2 6 1 3 1011.7 - 1.4
03/06:00am 25.5 28.0 20.3 73 3.4 SSW 7 11 4 6 1011.4 1011.1 1.4
03/05:30am 25.7 28.7 20.9 75 3.2 WSW 6 7 3 4 1010.9 - 1.4
03/05:00am 26.1 29.0 20.7 72 3.5 SW 6 7 3 4 1010.9 - 1.4
03/04:30am 26.5 28.7 20.3 68 4.1 S 9 11 5 6 1010.6 - 1.4
03/04:00am 26.8 29.5 20.6 69 4.1 S 7 9 4 5 1010.5 - 1.4
03/03:30am 26.5 29.6 21.0 72 3.6 ESE 6 7 3 4 1010.6 - 1.4
03/03:00am 26.8 29.6 20.9 70 3.9 SSE 7 11 4 6 1010.2 1010.1 1.4
03/02:30am 27.2 29.4 20.5 67 4.4 SE 9 13 5 7 1010.2 - 1.4
03/02:00am 27.5 29.5 20.8 67 4.4 SSE 11 15 6 8 1010.4 - 1.4
03/01:30am 27.7 29.1 21.0 67 4.4 S 15 19 8 10 1010.3 - 1.4
03/01:00am 27.9 29.5 21.4 67 4.3 S 15 19 8 10 1010.1 - 1.4
03/12:30am 28.1 29.2 21.9 69 4.2 S 19 26 10 14 1010.3 - 1.4
03/12:00am 28.9 30.1 21.4 64 5.0 S 17 20 9 11 1010.6 1010.3 1.4
 
Date/Time
EST
Temp
°C
App
Temp
°C
Dew
Point
°C
Rel
Hum
%
Delta-T
°C
Wind Press
QNH
hPa
Press
MSL
hPa
Rain since
9am
mm
Dir  Spd
km/h
Gust
km/h
Spd
kts
Gust
kts
02/11:30pm 29.5 31.4 21.4 61 5.4 SSW 13 17 7 9 1010.4 - 1.4
02/11:00pm 29.8 32.2 20.9 59 5.9 WSW 9 11 5 6 1010.3 - 1.4
02/10:30pm 30.1 32.7 21.2 59 6.0 WSW 9 13 5 7 1010.4 - 1.4
02/10:00pm 30.2 33.1 21.8 60 5.7 WSW 9 11 5 6 1010.5 - 1.4
02/09:30pm 30.6 33.5 21.7 59 6.0 W 9 13 5 7 1009.9 - 1.4
02/09:00pm 30.8 32.0 20.7 55 6.7 W 15 20 8 11 1009.4 1009.2 1.4
02/08:30pm 31.0 33.2 21.2 56 6.6 W 11 15 6 8 1009.4 - 1.4
02/08:00pm 31.5 33.3 21.1 54 7.0 W 13 20 7 11 1009.7 - 1.4
02/07:30pm 31.8 33.7 21.3 53 7.1 W 13 19 7 10 1009.6 - 1.4
02/07:00pm 31.7 35.2 22.1 56 6.5 SW 7 9 4 5 1009.7 - 1.4
02/06:30pm 31.8 35.0 21.6 54 6.9 SW 7 11 4 6 1009.6 - 1.4
02/06:00pm 31.5 32.9 21.1 54 7.0 S 15 19 8 10 1009.6 1009.4 1.4
02/05:30pm 34.3 36.0 21.0 45 9.0 W 13 20 7 11 1009.5 - 1.4
02/05:00pm 34.6 35.0 20.6 44 9.4 WNW 19 24 10 13 1008.6 - 1.4
02/04:30pm 34.6 35.4 21.3 46 9.0 NW 19 26 10 14 1008.3 - 1.4
02/04:00pm 35.6 35.9 20.3 40 10.3 NW 19 26 10 14 1008.2 - 1.4
02/03:30pm 35.7 35.0 18.7 36 11.2 NNW 20 28 11 15 1008.3 - 1.4
02/03:00pm 34.9 34.1 20.1 42 9.9 NNW 24 33 13 18 1008.9 1008.7 1.4
02/02:30pm 34.3 32.8 21.0 45 9.0 NNW 30 43 16 23 1009.2 - 1.4
02/02:00pm 35.7 35.7 23.0 48 8.8 NNW 28 43 15 23 1009.4 - 1.4
02/01:30pm 33.7 34.1 23.1 54 7.3 NNW 26 39 14 21 1010.1 - 1.4
02/01:00pm 31.0 31.5 24.6 68 4.5 N 30 39 16 21 1010.4 - 1.2
02/12:30pm 35.3 36.2 22.6 47 8.8 NW 22 30 12 16 1010.4 - 0.0
02/12:00pm 35.3 36.2 20.8 42 9.8 NW 17 24 9 13 1010.8 1010.7 0.0
02/11:30am 34.6 35.9 21.6 46 8.8 NW 17 26 9 14 1011.2 - 0.0
02/11:00am 34.2 36.2 22.3 50 8.2 NNW 15 24 8 13 1011.4 - 0.0
02/10:30am 33.7 35.3 22.1 50 7.9 NNW 17 24 9 13 1011.6 - 0.0
02/10:00am 33.3 35.4 22.4 52 7.5 N 15 24 8 13 1011.8 - 0.0
02/09:30am 32.9 35.3 23.0 56 6.8 NNW 15 22 8 12 1012.0 - 0.0
02/09:00am 32.0 35.0 23.3 60 6.0 N 13 22 7 12 1012.0 1011.8 0.0
02/08:30am 30.6 33.6 22.7 62 5.4 N 11 17 6 9 1012.0 - 0.0
02/08:00am 29.9 32.6 22.9 66 4.8 N 13 19 7 10 1011.8 - 0.0
02/07:30am 28.6 31.9 22.6 70 4.1 NNE 9 15 5 8 1011.3 - 0.0
02/07:00am 28.0 31.3 22.5 72 3.7 NNE 9 15 5 8 1011.2 - 0.0
02/06:30am 27.4 31.4 22.8 76 3.1 NNE 6 11 3 6 1010.6 - 0.0
02/06:00am 26.9 31.4 22.9 79 2.7 N 4 7 2 4 1010.3 1010.1 0.0
02/05:30am 27.2 31.1 23.0 78 2.9 N 7 11 4 6 1009.8 - 0.0
02/05:00am 27.6 30.8 23.0 76 3.1 N 11 17 6 9 1009.4 - 0.0
02/04:30am 27.7 31.4 23.3 77 3.0 N 9 15 5 8 1008.9 - 0.0
02/04:00am 27.8 31.1 23.2 76 3.1 N 11 17 6 9 1008.6 - 0.0
02/03:30am 27.8 30.6 23.0 75 3.3 N 13 19 7 10 1008.3 - 0.0
02/03:00am 27.9 30.1 23.3 76 3.2 N 17 24 9 13 1008.5 1008.4 0.0
02/02:30am 28.1 31.0 23.2 74 3.4 NNE 13 19 7 10 1008.8 - 0.0
02/02:00am 28.0 30.7 23.4 76 3.2 NNE 15 24 8 13 1008.9 - 0.0
02/01:30am 28.2 31.0 23.6 76 3.2 ENE 15 26 8 14 1009.3 - 0.0
02/01:00am 28.4 31.3 23.8 76 3.2 ENE 15 22 8 12 1009.2 - 0.0
02/12:30am 29.0 32.8 24.1 75 3.4 N 11 17 6 9 1008.9 - 0.0
02/12:00am 29.2 33.1 24.3 75 3.4 N 11 15 6 8 1009.2 1009.1 0.0
 
Date/Time
EST
Temp
°C
App
Temp
°C
Dew
Point
°C
Rel
Hum
%
Delta-T
°C
Wind Press
QNH
hPa
Press
MSL
hPa
Rain since
9am
mm
Dir  Spd
km/h
Gust
km/h
Spd
kts
Gust
kts
01/11:30pm 29.5 33.1 24.4 74 3.6 NNW 13 15 7 8 1009.1 - 0.0
01/11:00pm 29.6 33.3 24.5 74 3.6 N 13 19 7 10 1009.5 - 0.0
01/10:30pm 29.7 33.3 24.3 73 3.8 N 13 17 7 9 1009.4 - 0.0
01/10:00pm 29.8 33.8 24.4 73 3.8 N 11 17 6 9 1008.8 - 0.0
01/09:30pm 30.2 33.8 24.4 71 4.0 NNW 13 17 7 9 1008.6 - 0.0
01/09:00pm 30.3 33.4 24.2 70 4.3 N 15 20 8 11 1008.6 1008.4 0.0
01/08:30pm 30.4 33.1 24.1 69 4.4 N 17 22 9 12 1008.4 - 0.0
01/08:00pm 30.7 32.7 23.6 66 4.9 N 19 24 10 13 1008.2 - 0.0
01/07:30pm 31.3 33.0 23.1 61 5.6 NNW 19 24 10 13 1007.8 - 0.0
01/07:00pm 31.7 33.0 22.4 58 6.3 NW 19 24 10 13 1007.2 - 0.0
01/06:30pm 32.2 33.2 21.7 54 7.1 WNW 19 28 10 15 1007.0 - 0.0
01/06:00pm 33.2 32.8 21.0 48 8.2 NNW 24 32 13 17 1006.6 1006.4 0.0
01/05:30pm 34.3 32.8 21.0 45 9.0 NNW 30 39 16 21 1006.2 - 0.0
01/05:00pm 34.4 32.6 20.4 44 9.4 NNW 30 39 16 21 1006.7 - 0.0
01/04:30pm 35.8 33.9 20.1 40 10.5 NNW 30 39 16 21 1006.5 - 0.0
01/04:00pm 35.7 34.7 19.6 39 10.7 NNW 24 32 13 17 1006.5 - 0.0
01/03:30pm 36.2 34.8 19.6 37 11.1 NNW 26 35 14 19 1006.5 - 0.0
01/03:00pm 36.6 36.5 20.0 38 11.1 WNW 20 32 11 17 1006.8 1006.6 0.0
01/02:30pm 37.0 37.8 19.0 34 11.9 NNW 13 26 7 14 1007.2 - 0.0
01/02:00pm 35.6 35.9 18.7 37 11.1 WNW 15 24 8 13 1007.8 - 0.0
01/01:30pm 35.8 36.1 19.7 39 10.7 WNW 17 24 9 13 1008.4 - 0.0
01/01:00pm 34.9 34.3 18.5 38 10.7 NNW 19 30 10 16 1008.9 - 0.0
01/12:30pm 35.5 35.1 19.4 38 10.7 NNW 20 30 11 16 1009.3 - 0.0
01/12:00pm 35.5 36.1 20.2 40 10.3 NW 17 28 9 15 1009.7 1009.5 0.0
01/11:30am 34.5 35.2 21.2 46 9.0 N 19 28 10 15 1010.2 - 0.0
01/11:00am 34.8 35.8 21.1 44 9.3 NW 17 26 9 14 1010.5 - 0.0
01/10:30am 33.4 33.7 20.5 46 8.6 N 19 26 10 14 1010.9 - 0.0
01/10:00am 33.3 35.0 22.4 52 7.5 N 17 28 9 15 1011.1 - 0.0

Other Formats:

Comma delimited format used in spreadsheet applications
http://www.bom.gov.au/fwo/IDQ60801/IDQ60801.94266.axf

JavaScript Object Notation format (JSON) in row-major order
http://www.bom.gov.au/fwo/IDQ60801/IDQ60801.94266.json